sensor_id;sensor_type;location;lat;lon;timestamp;P1;durP1;ratioP1;P2;durP2;ratioP2
21162;SDS011;10739;52.198;20.908;2023-05-20T00:00:45;18.83;;;8.43;;
21162;SDS011;10739;52.198;20.908;2023-05-20T00:03:15;13.30;;;8.40;;
21162;SDS011;10739;52.198;20.908;2023-05-20T00:05:41;11.93;;;8.20;;
21162;SDS011;10739;52.198;20.908;2023-05-20T00:08:08;14.05;;;7.68;;
21162;SDS011;10739;52.198;20.908;2023-05-20T00:10:35;15.30;;;8.70;;
21162;SDS011;10739;52.198;20.908;2023-05-20T00:13:01;11.60;;;8.30;;
21162;SDS011;10739;52.198;20.908;2023-05-20T00:15:28;15.68;;;8.43;;
21162;SDS011;10739;52.198;20.908;2023-05-20T00:17:55;14.70;;;7.90;;
21162;SDS011;10739;52.198;20.908;2023-05-20T00:20:21;16.25;;;8.23;;
21162;SDS011;10739;52.198;20.908;2023-05-20T00:22:47;11.38;;;7.75;;
21162;SDS011;10739;52.198;20.908;2023-05-20T00:25:14;14.40;;;8.57;;
21162;SDS011;10739;52.198;20.908;2023-05-20T00:27:40;12.95;;;7.93;;
21162;SDS011;10739;52.198;20.908;2023-05-20T00:30:07;17.08;;;8.80;;
21162;SDS011;10739;52.198;20.908;2023-05-20T00:32:34;14.55;;;8.60;;
21162;SDS011;10739;52.198;20.908;2023-05-20T00:35:00;15.98;;;8.07;;
21162;SDS011;10739;52.198;20.908;2023-05-20T00:37:27;9.18;;;7.15;;
21162;SDS011;10739;52.198;20.908;2023-05-20T00:39:54;13.57;;;8.05;;
21162;SDS011;10739;52.198;20.908;2023-05-20T00:42:24;13.65;;;7.57;;
21162;SDS011;10739;52.198;20.908;2023-05-20T00:44:52;10.27;;;7.30;;
21162;SDS011;10739;52.198;20.908;2023-05-20T00:47:22;13.73;;;7.65;;
21162;SDS011;10739;52.198;20.908;2023-05-20T00:49:54;11.32;;;7.40;;
21162;SDS011;10739;52.198;20.908;2023-05-20T00:52:22;13.75;;;7.38;;
21162;SDS011;10739;52.198;20.908;2023-05-20T00:54:50;9.32;;;6.65;;
21162;SDS011;10739;52.198;20.908;2023-05-20T00:57:18;11.10;;;7.72;;
21162;SDS011;10739;52.198;20.908;2023-05-20T00:59:45;10.93;;;7.20;;
21162;SDS011;10739;52.198;20.908;2023-05-20T01:02:11;12.63;;;7.20;;
21162;SDS011;10739;52.198;20.908;2023-05-20T01:04:38;14.02;;;7.35;;
21162;SDS011;10739;52.198;20.908;2023-05-20T01:07:06;12.40;;;7.13;;
21162;SDS011;10739;52.198;20.908;2023-05-20T01:09:32;11.43;;;7.40;;
21162;SDS011;10739;52.198;20.908;2023-05-20T01:12:04;10.88;;;7.10;;
21162;SDS011;10739;52.198;20.908;2023-05-20T01:14:49;12.30;;;7.03;;
21162;SDS011;10739;52.198;20.908;2023-05-20T01:17:25;18.45;;;6.90;;
21162;SDS011;10739;52.198;20.908;2023-05-20T01:20:00;14.82;;;6.32;;
21162;SDS011;10739;52.198;20.908;2023-05-20T01:22:28;14.73;;;6.40;;
21162;SDS011;10739;52.198;20.908;2023-05-20T01:24:55;10.95;;;6.57;;
21162;SDS011;10739;52.198;20.908;2023-05-20T01:27:21;14.00;;;6.90;;
21162;SDS011;10739;52.198;20.908;2023-05-20T01:29:49;9.73;;;6.13;;
21162;SDS011;10739;52.198;20.908;2023-05-20T01:32:21;11.73;;;6.40;;
21162;SDS011;10739;52.198;20.908;2023-05-20T01:34:52;10.88;;;6.28;;
21162;SDS011;10739;52.198;20.908;2023-05-20T01:37:21;11.48;;;5.50;;
21162;SDS011;10739;52.198;20.908;2023-05-20T01:39:50;11.27;;;5.70;;
21162;SDS011;10739;52.198;20.908;2023-05-20T01:42:18;10.45;;;6.05;;
21162;SDS011;10739;52.198;20.908;2023-05-20T01:44:45;8.82;;;5.63;;
21162;SDS011;10739;52.198;20.908;2023-05-20T01:47:12;8.00;;;5.82;;
21162;SDS011;10739;52.198;20.908;2023-05-20T01:49:38;9.85;;;5.85;;
21162;SDS011;10739;52.198;20.908;2023-05-20T01:52:04;8.43;;;5.30;;
21162;SDS011;10739;52.198;20.908;2023-05-20T01:54:31;11.73;;;5.72;;
21162;SDS011;10739;52.198;20.908;2023-05-20T01:56:57;8.05;;;5.90;;
21162;SDS011;10739;52.198;20.908;2023-05-20T01:59:23;7.15;;;5.70;;
21162;SDS011;10739;52.198;20.908;2023-05-20T02:01:49;9.13;;;5.68;;
21162;SDS011;10739;52.198;20.908;2023-05-20T02:04:16;9.10;;;5.20;;
21162;SDS011;10739;52.198;20.908;2023-05-20T02:06:43;7.85;;;5.53;;
21162;SDS011;10739;52.198;20.908;2023-05-20T02:09:10;9.40;;;6.03;;
21162;SDS011;10739;52.198;20.908;2023-05-20T02:11:36;7.30;;;5.93;;
21162;SDS011;10739;52.198;20.908;2023-05-20T02:14:03;13.48;;;6.40;;
21162;SDS011;10739;52.198;20.908;2023-05-20T02:16:29;11.45;;;5.55;;
21162;SDS011;10739;52.198;20.908;2023-05-20T02:18:55;7.10;;;5.43;;
21162;SDS011;10739;52.198;20.908;2023-05-20T02:21:23;10.90;;;5.55;;
21162;SDS011;10739;52.198;20.908;2023-05-20T02:23:50;9.13;;;5.18;;
21162;SDS011;10739;52.198;20.908;2023-05-20T02:26:16;7.38;;;5.35;;
21162;SDS011;10739;52.198;20.908;2023-05-20T02:28:44;10.52;;;5.40;;
21162;SDS011;10739;52.198;20.908;2023-05-20T02:31:11;20.55;;;6.32;;
21162;SDS011;10739;52.198;20.908;2023-05-20T02:33:37;10.27;;;5.65;;
21162;SDS011;10739;52.198;20.908;2023-05-20T02:36:04;7.25;;;5.30;;
21162;SDS011;10739;52.198;20.908;2023-05-20T02:38:30;6.20;;;4.75;;
21162;SDS011;10739;52.198;20.908;2023-05-20T02:40:57;8.55;;;5.15;;
21162;SDS011;10739;52.198;20.908;2023-05-20T02:43:24;10.00;;;5.30;;
21162;SDS011;10739;52.198;20.908;2023-05-20T02:45:50;7.85;;;4.97;;
21162;SDS011;10739;52.198;20.908;2023-05-20T02:48:17;11.35;;;4.95;;
21162;SDS011;10739;52.198;20.908;2023-05-20T02:50:44;11.80;;;5.10;;
21162;SDS011;10739;52.198;20.908;2023-05-20T02:53:11;16.23;;;5.80;;
21162;SDS011;10739;52.198;20.908;2023-05-20T02:55:37;8.05;;;5.20;;
21162;SDS011;10739;52.198;20.908;2023-05-20T02:58:05;11.93;;;5.22;;
21162;SDS011;10739;52.198;20.908;2023-05-20T03:00:31;8.63;;;4.88;;
21162;SDS011;10739;52.198;20.908;2023-05-20T03:03:05;8.45;;;5.22;;
21162;SDS011;10739;52.198;20.908;2023-05-20T03:05:32;8.48;;;4.60;;
21162;SDS011;10739;52.198;20.908;2023-05-20T03:08:08;9.82;;;4.75;;
21162;SDS011;10739;52.198;20.908;2023-05-20T03:10:35;10.40;;;5.30;;
21162;SDS011;10739;52.198;20.908;2023-05-20T03:13:06;9.32;;;5.05;;
21162;SDS011;10739;52.198;20.908;2023-05-20T03:15:34;9.80;;;5.00;;
21162;SDS011;10739;52.198;20.908;2023-05-20T03:18:01;8.90;;;4.80;;
21162;SDS011;10739;52.198;20.908;2023-05-20T03:20:27;7.93;;;5.57;;
21162;SDS011;10739;52.198;20.908;2023-05-20T03:22:54;9.88;;;5.30;;
21162;SDS011;10739;52.198;20.908;2023-05-20T03:25:21;9.23;;;4.70;;
21162;SDS011;10739;52.198;20.908;2023-05-20T03:27:48;9.05;;;4.60;;
21162;SDS011;10739;52.198;20.908;2023-05-20T03:30:14;7.40;;;4.65;;
21162;SDS011;10739;52.198;20.908;2023-05-20T03:32:41;7.40;;;4.85;;
21162;SDS011;10739;52.198;20.908;2023-05-20T03:35:07;8.10;;;4.40;;
21162;SDS011;10739;52.198;20.908;2023-05-20T03:37:34;11.23;;;4.97;;
21162;SDS011;10739;52.198;20.908;2023-05-20T03:40:01;6.47;;;4.68;;
21162;SDS011;10739;52.198;20.908;2023-05-20T03:42:31;9.07;;;4.70;;
21162;SDS011;10739;52.198;20.908;2023-05-20T03:44:58;9.88;;;4.97;;
21162;SDS011;10739;52.198;20.908;2023-05-20T03:47:25;7.78;;;4.70;;
21162;SDS011;10739;52.198;20.908;2023-05-20T03:49:52;8.10;;;4.40;;
21162;SDS011;10739;52.198;20.908;2023-05-20T03:52:19;7.63;;;5.05;;
21162;SDS011;10739;52.198;20.908;2023-05-20T03:54:45;5.88;;;4.85;;
21162;SDS011;10739;52.198;20.908;2023-05-20T03:57:12;9.55;;;5.18;;
21162;SDS011;10739;52.198;20.908;2023-05-20T03:59:38;8.68;;;4.90;;
21162;SDS011;10739;52.198;20.908;2023-05-20T04:02:04;12.32;;;5.15;;
21162;SDS011;10739;52.198;20.908;2023-05-20T04:04:31;10.73;;;4.40;;
21162;SDS011;10739;52.198;20.908;2023-05-20T04:06:57;9.15;;;4.70;;
21162;SDS011;10739;52.198;20.908;2023-05-20T04:09:25;8.75;;;4.90;;
21162;SDS011;10739;52.198;20.908;2023-05-20T04:11:51;9.88;;;4.50;;
21162;SDS011;10739;52.198;20.908;2023-05-20T04:14:18;10.20;;;5.43;;
21162;SDS011;10739;52.198;20.908;2023-05-20T04:16:44;7.78;;;4.50;;
21162;SDS011;10739;52.198;20.908;2023-05-20T04:19:11;9.07;;;4.65;;
21162;SDS011;10739;52.198;20.908;2023-05-20T04:21:37;8.30;;;4.30;;
21162;SDS011;10739;52.198;20.908;2023-05-20T04:24:04;9.27;;;4.43;;
21162;SDS011;10739;52.198;20.908;2023-05-20T04:26:31;9.90;;;4.95;;
21162;SDS011;10739;52.198;20.908;2023-05-20T04:28:58;6.32;;;4.60;;
21162;SDS011;10739;52.198;20.908;2023-05-20T04:31:25;7.93;;;4.65;;
21162;SDS011;10739;52.198;20.908;2023-05-20T04:33:52;13.10;;;4.57;;
21162;SDS011;10739;52.198;20.908;2023-05-20T04:36:19;9.23;;;5.22;;
21162;SDS011;10739;52.198;20.908;2023-05-20T04:38:46;7.18;;;4.55;;
21162;SDS011;10739;52.198;20.908;2023-05-20T04:41:14;6.60;;;4.03;;
21162;SDS011;10739;52.198;20.908;2023-05-20T04:43:40;8.02;;;3.97;;
21162;SDS011;10739;52.198;20.908;2023-05-20T04:46:07;9.23;;;4.22;;
21162;SDS011;10739;52.198;20.908;2023-05-20T04:48:34;6.80;;;4.30;;
21162;SDS011;10739;52.198;20.908;2023-05-20T04:51:00;8.60;;;4.18;;
21162;SDS011;10739;52.198;20.908;2023-05-20T04:53:27;9.98;;;4.55;;
21162;SDS011;10739;52.198;20.908;2023-05-20T04:55:55;6.25;;;4.22;;
21162;SDS011;10739;52.198;20.908;2023-05-20T04:58:22;9.05;;;4.50;;
21162;SDS011;10739;52.198;20.908;2023-05-20T05:00:49;9.75;;;4.97;;
21162;SDS011;10739;52.198;20.908;2023-05-20T05:03:16;6.25;;;4.47;;
21162;SDS011;10739;52.198;20.908;2023-05-20T05:05:43;7.05;;;4.22;;
21162;SDS011;10739;52.198;20.908;2023-05-20T05:08:11;11.18;;;4.05;;
21162;SDS011;10739;52.198;20.908;2023-05-20T05:10:37;8.48;;;3.78;;
21162;SDS011;10739;52.198;20.908;2023-05-20T05:13:04;10.13;;;4.10;;
21162;SDS011;10739;52.198;20.908;2023-05-20T05:15:30;7.80;;;4.18;;
21162;SDS011;10739;52.198;20.908;2023-05-20T05:17:56;10.73;;;4.05;;
21162;SDS011;10739;52.198;20.908;2023-05-20T05:20:23;9.80;;;3.72;;
21162;SDS011;10739;52.198;20.908;2023-05-20T05:22:49;5.88;;;3.40;;
21162;SDS011;10739;52.198;20.908;2023-05-20T05:25:15;9.45;;;4.30;;
21162;SDS011;10739;52.198;20.908;2023-05-20T05:27:42;7.20;;;3.90;;
21162;SDS011;10739;52.198;20.908;2023-05-20T05:30:13;5.53;;;3.55;;
21162;SDS011;10739;52.198;20.908;2023-05-20T05:32:39;5.63;;;3.78;;
21162;SDS011;10739;52.198;20.908;2023-05-20T05:35:06;10.30;;;4.10;;
21162;SDS011;10739;52.198;20.908;2023-05-20T05:37:32;12.48;;;3.72;;
21162;SDS011;10739;52.198;20.908;2023-05-20T05:39:59;9.30;;;3.92;;
21162;SDS011;10739;52.198;20.908;2023-05-20T05:42:25;13.30;;;4.63;;
21162;SDS011;10739;52.198;20.908;2023-05-20T05:44:51;8.52;;;3.78;;
21162;SDS011;10739;52.198;20.908;2023-05-20T05:47:17;9.82;;;4.40;;
21162;SDS011;10739;52.198;20.908;2023-05-20T05:49:44;5.78;;;3.80;;
21162;SDS011;10739;52.198;20.908;2023-05-20T05:52:10;7.50;;;3.75;;
21162;SDS011;10739;52.198;20.908;2023-05-20T05:54:36;9.57;;;4.28;;
21162;SDS011;10739;52.198;20.908;2023-05-20T05:57:02;7.07;;;3.90;;
21162;SDS011;10739;52.198;20.908;2023-05-20T05:59:29;10.05;;;4.20;;
21162;SDS011;10739;52.198;20.908;2023-05-20T06:01:55;6.72;;;3.60;;
21162;SDS011;10739;52.198;20.908;2023-05-20T06:04:22;6.82;;;4.10;;
21162;SDS011;10739;52.198;20.908;2023-05-20T06:06:48;16.08;;;4.13;;
21162;SDS011;10739;52.198;20.908;2023-05-20T06:09:14;7.50;;;4.47;;
21162;SDS011;10739;52.198;20.908;2023-05-20T06:11:41;12.02;;;4.35;;
21162;SDS011;10739;52.198;20.908;2023-05-20T06:14:08;5.85;;;4.05;;
21162;SDS011;10739;52.198;20.908;2023-05-20T06:16:35;9.27;;;4.20;;
21162;SDS011;10739;52.198;20.908;2023-05-20T06:19:01;12.27;;;4.40;;
21162;SDS011;10739;52.198;20.908;2023-05-20T06:21:30;12.90;;;4.07;;
21162;SDS011;10739;52.198;20.908;2023-05-20T06:23:57;6.53;;;3.70;;
21162;SDS011;10739;52.198;20.908;2023-05-20T06:26:23;7.57;;;4.15;;
21162;SDS011;10739;52.198;20.908;2023-05-20T06:28:49;9.75;;;4.45;;
21162;SDS011;10739;52.198;20.908;2023-05-20T06:31:17;8.60;;;4.43;;
21162;SDS011;10739;52.198;20.908;2023-05-20T06:33:43;10.18;;;4.20;;
21162;SDS011;10739;52.198;20.908;2023-05-20T06:36:10;7.47;;;4.45;;
21162;SDS011;10739;52.198;20.908;2023-05-20T06:38:36;14.05;;;4.47;;
21162;SDS011;10739;52.198;20.908;2023-05-20T06:41:02;9.63;;;4.28;;
21162;SDS011;10739;52.198;20.908;2023-05-20T06:43:29;11.35;;;4.57;;
21162;SDS011;10739;52.198;20.908;2023-05-20T06:45:55;8.38;;;4.53;;
21162;SDS011;10739;52.198;20.908;2023-05-20T06:48:21;12.02;;;4.28;;
21162;SDS011;10739;52.198;20.908;2023-05-20T06:50:48;8.13;;;4.20;;
21162;SDS011;10739;52.198;20.908;2023-05-20T06:53:14;10.30;;;4.80;;
21162;SDS011;10739;52.198;20.908;2023-05-20T06:55:41;6.30;;;4.18;;
21162;SDS011;10739;52.198;20.908;2023-05-20T06:58:07;7.07;;;4.50;;
21162;SDS011;10739;52.198;20.908;2023-05-20T07:00:33;5.57;;;3.83;;
21162;SDS011;10739;52.198;20.908;2023-05-20T07:02:59;7.63;;;4.43;;
21162;SDS011;10739;52.198;20.908;2023-05-20T07:05:26;12.52;;;5.03;;
21162;SDS011;10739;52.198;20.908;2023-05-20T07:07:53;12.15;;;4.30;;
21162;SDS011;10739;52.198;20.908;2023-05-20T07:10:19;8.43;;;4.20;;
21162;SDS011;10739;52.198;20.908;2023-05-20T07:12:45;9.15;;;4.35;;
21162;SDS011;10739;52.198;20.908;2023-05-20T07:15:11;13.05;;;4.53;;
21162;SDS011;10739;52.198;20.908;2023-05-20T07:17:38;6.57;;;4.35;;
21162;SDS011;10739;52.198;20.908;2023-05-20T07:20:05;10.40;;;4.53;;
21162;SDS011;10739;52.198;20.908;2023-05-20T07:22:32;8.05;;;4.82;;
21162;SDS011;10739;52.198;20.908;2023-05-20T07:24:58;8.02;;;4.25;;
21162;SDS011;10739;52.198;20.908;2023-05-20T07:27:25;8.65;;;4.30;;
21162;SDS011;10739;52.198;20.908;2023-05-20T07:29:51;7.97;;;4.20;;
21162;SDS011;10739;52.198;20.908;2023-05-20T07:32:18;8.00;;;4.30;;
21162;SDS011;10739;52.198;20.908;2023-05-20T07:34:44;10.27;;;4.28;;
21162;SDS011;10739;52.198;20.908;2023-05-20T07:37:10;12.50;;;4.13;;
21162;SDS011;10739;52.198;20.908;2023-05-20T07:39:37;8.02;;;4.68;;
21162;SDS011;10739;52.198;20.908;2023-05-20T07:42:03;9.52;;;4.22;;
21162;SDS011;10739;52.198;20.908;2023-05-20T07:44:30;8.05;;;4.53;;
21162;SDS011;10739;52.198;20.908;2023-05-20T07:46:56;10.45;;;4.25;;
21162;SDS011;10739;52.198;20.908;2023-05-20T07:49:23;7.57;;;4.38;;
21162;SDS011;10739;52.198;20.908;2023-05-20T07:51:49;8.43;;;4.30;;
21162;SDS011;10739;52.198;20.908;2023-05-20T07:54:15;4.88;;;3.70;;
21162;SDS011;10739;52.198;20.908;2023-05-20T07:56:42;7.22;;;3.92;;
21162;SDS011;10739;52.198;20.908;2023-05-20T07:59:08;7.85;;;4.30;;
21162;SDS011;10739;52.198;20.908;2023-05-20T08:01:35;9.38;;;3.72;;
21162;SDS011;10739;52.198;20.908;2023-05-20T08:04:01;10.68;;;4.35;;
21162;SDS011;10739;52.198;20.908;2023-05-20T08:06:28;9.70;;;4.40;;
21162;SDS011;10739;52.198;20.908;2023-05-20T08:08:54;11.75;;;3.78;;
21162;SDS011;10739;52.198;20.908;2023-05-20T08:11:20;5.65;;;3.55;;
21162;SDS011;10739;52.198;20.908;2023-05-20T08:13:47;11.02;;;4.30;;
21162;SDS011;10739;52.198;20.908;2023-05-20T08:16:13;9.82;;;4.25;;
21162;SDS011;10739;52.198;20.908;2023-05-20T08:18:40;9.00;;;4.55;;
21162;SDS011;10739;52.198;20.908;2023-05-20T08:21:06;7.43;;;4.25;;
21162;SDS011;10739;52.198;20.908;2023-05-20T08:23:34;7.57;;;4.72;;
21162;SDS011;10739;52.198;20.908;2023-05-20T08:26:01;13.75;;;4.65;;
21162;SDS011;10739;52.198;20.908;2023-05-20T08:28:31;6.10;;;3.80;;
21162;SDS011;10739;52.198;20.908;2023-05-20T08:30:59;8.57;;;3.97;;
21162;SDS011;10739;52.198;20.908;2023-05-20T08:33:26;6.85;;;4.00;;
21162;SDS011;10739;52.198;20.908;2023-05-20T08:35:53;7.55;;;4.03;;
21162;SDS011;10739;52.198;20.908;2023-05-20T08:38:19;4.28;;;3.88;;
21162;SDS011;10739;52.198;20.908;2023-05-20T08:40:50;5.90;;;3.83;;
21162;SDS011;10739;52.198;20.908;2023-05-20T08:43:19;4.15;;;3.53;;
21162;SDS011;10739;52.198;20.908;2023-05-20T08:45:46;5.63;;;3.30;;
21162;SDS011;10739;52.198;20.908;2023-05-20T08:48:15;7.57;;;3.88;;
21162;SDS011;10739;52.198;20.908;2023-05-20T08:50:44;8.10;;;3.75;;
21162;SDS011;10739;52.198;20.908;2023-05-20T08:53:15;10.07;;;4.30;;
21162;SDS011;10739;52.198;20.908;2023-05-20T08:55:42;12.55;;;4.50;;
21162;SDS011;10739;52.198;20.908;2023-05-20T08:58:18;6.20;;;3.75;;
21162;SDS011;10739;52.198;20.908;2023-05-20T09:00:47;9.43;;;3.78;;
21162;SDS011;10739;52.198;20.908;2023-05-20T09:03:15;5.35;;;3.80;;
21162;SDS011;10739;52.198;20.908;2023-05-20T09:05:42;6.80;;;4.30;;
21162;SDS011;10739;52.198;20.908;2023-05-20T09:08:09;7.50;;;4.57;;
21162;SDS011;10739;52.198;20.908;2023-05-20T09:10:37;8.52;;;3.97;;
21162;SDS011;10739;52.198;20.908;2023-05-20T09:13:05;7.35;;;3.38;;
21162;SDS011;10739;52.198;20.908;2023-05-20T09:15:33;7.72;;;3.70;;
21162;SDS011;10739;52.198;20.908;2023-05-20T09:18:01;7.85;;;4.00;;
21162;SDS011;10739;52.198;20.908;2023-05-20T09:20:31;10.13;;;4.40;;
21162;SDS011;10739;52.198;20.908;2023-05-20T09:23:02;5.53;;;3.85;;
21162;SDS011;10739;52.198;20.908;2023-05-20T09:25:30;12.32;;;4.05;;
21162;SDS011;10739;52.198;20.908;2023-05-20T09:27:57;15.43;;;3.90;;
21162;SDS011;10739;52.198;20.908;2023-05-20T09:30:23;7.78;;;3.85;;
21162;SDS011;10739;52.198;20.908;2023-05-20T09:32:53;8.23;;;4.03;;
21162;SDS011;10739;52.198;20.908;2023-05-20T09:35:21;6.72;;;4.10;;
21162;SDS011;10739;52.198;20.908;2023-05-20T09:37:52;7.60;;;4.28;;
21162;SDS011;10739;52.198;20.908;2023-05-20T09:40:24;8.52;;;4.13;;
21162;SDS011;10739;52.198;20.908;2023-05-20T09:45:21;7.15;;;3.80;;
21162;SDS011;10739;52.198;20.908;2023-05-20T09:47:52;6.63;;;3.72;;
21162;SDS011;10739;52.198;20.908;2023-05-20T09:50:21;7.15;;;3.80;;
21162;SDS011;10739;52.198;20.908;2023-05-20T09:52:50;11.30;;;3.83;;
21162;SDS011;10739;52.198;20.908;2023-05-20T09:55:19;8.32;;;4.20;;
21162;SDS011;10739;52.198;20.908;2023-05-20T09:57:49;6.00;;;3.72;;
21162;SDS011;10739;52.198;20.908;2023-05-20T10:00:18;11.32;;;4.20;;
21162;SDS011;10739;52.198;20.908;2023-05-20T10:02:49;12.95;;;4.47;;
21162;SDS011;10739;52.198;20.908;2023-05-20T10:05:21;11.00;;;4.13;;
21162;SDS011;10739;52.198;20.908;2023-05-20T10:10:43;14.02;;;4.45;;
21162;SDS011;10739;52.198;20.908;2023-05-20T10:13:39;9.35;;;4.30;;
21162;SDS011;10739;52.198;20.908;2023-05-20T10:16:49;8.45;;;5.80;;
21162;SDS011;10739;52.198;20.908;2023-05-20T10:19:36;7.88;;;4.53;;
21162;SDS011;10739;52.198;20.908;2023-05-20T10:22:06;11.20;;;4.20;;
21162;SDS011;10739;52.198;20.908;2023-05-20T10:24:35;6.20;;;4.50;;
21162;SDS011;10739;52.198;20.908;2023-05-20T10:27:23;5.72;;;4.20;;
21162;SDS011;10739;52.198;20.908;2023-05-20T10:29:50;9.15;;;4.57;;
21162;SDS011;10739;52.198;20.908;2023-05-20T10:32:28;6.03;;;4.00;;
21162;SDS011;10739;52.198;20.908;2023-05-20T10:35:00;5.95;;;4.07;;
21162;SDS011;10739;52.198;20.908;2023-05-20T10:37:30;11.80;;;4.65;;
21162;SDS011;10739;52.198;20.908;2023-05-20T10:40:09;9.07;;;4.93;;
21162;SDS011;10739;52.198;20.908;2023-05-20T10:42:37;6.03;;;3.95;;
21162;SDS011;10739;52.198;20.908;2023-05-20T10:45:06;5.13;;;3.75;;
21162;SDS011;10739;52.198;20.908;2023-05-20T10:47:34;8.25;;;4.90;;
21162;SDS011;10739;52.198;20.908;2023-05-20T10:50:00;9.05;;;4.38;;
21162;SDS011;10739;52.198;20.908;2023-05-20T10:52:32;9.73;;;4.35;;
21162;SDS011;10739;52.198;20.908;2023-05-20T10:55:00;10.02;;;4.22;;
21162;SDS011;10739;52.198;20.908;2023-05-20T10:57:29;8.18;;;4.40;;
21162;SDS011;10739;52.198;20.908;2023-05-20T10:59:58;8.00;;;4.13;;
21162;SDS011;10739;52.198;20.908;2023-05-20T11:02:25;7.72;;;4.18;;
21162;SDS011;10739;52.198;20.908;2023-05-20T11:04:54;7.47;;;4.32;;
21162;SDS011;10739;52.198;20.908;2023-05-20T11:07:29;8.10;;;5.18;;
21162;SDS011;10739;52.198;20.908;2023-05-20T11:09:56;6.35;;;4.45;;
21162;SDS011;10739;52.198;20.908;2023-05-20T11:12:24;5.78;;;3.83;;
21162;SDS011;10739;52.198;20.908;2023-05-20T11:14:52;14.88;;;4.15;;
21162;SDS011;10739;52.198;20.908;2023-05-20T11:17:19;8.27;;;3.95;;
21162;SDS011;10739;52.198;20.908;2023-05-20T11:19:46;9.20;;;4.13;;
21162;SDS011;10739;52.198;20.908;2023-05-20T11:22:13;9.30;;;4.20;;
21162;SDS011;10739;52.198;20.908;2023-05-20T11:24:39;6.00;;;3.92;;
21162;SDS011;10739;52.198;20.908;2023-05-20T11:27:05;10.30;;;4.60;;
21162;SDS011;10739;52.198;20.908;2023-05-20T11:29:32;10.25;;;4.38;;
21162;SDS011;10739;52.198;20.908;2023-05-20T11:31:59;10.23;;;4.30;;
21162;SDS011;10739;52.198;20.908;2023-05-20T11:34:31;6.63;;;3.78;;
21162;SDS011;10739;52.198;20.908;2023-05-20T11:37:05;9.27;;;6.30;;
21162;SDS011;10739;52.198;20.908;2023-05-20T11:39:33;8.77;;;4.00;;
21162;SDS011;10739;52.198;20.908;2023-05-20T11:42:00;5.95;;;4.03;;
21162;SDS011;10739;52.198;20.908;2023-05-20T11:44:27;6.70;;;3.83;;
21162;SDS011;10739;52.198;20.908;2023-05-20T11:46:58;10.38;;;4.30;;
21162;SDS011;10739;52.198;20.908;2023-05-20T11:49:26;4.07;;;3.60;;
21162;SDS011;10739;52.198;20.908;2023-05-20T11:51:52;5.22;;;3.55;;
21162;SDS011;10739;52.198;20.908;2023-05-20T11:54:20;7.90;;;3.72;;
21162;SDS011;10739;52.198;20.908;2023-05-20T11:56:49;8.48;;;4.15;;
21162;SDS011;10739;52.198;20.908;2023-05-20T11:59:15;5.65;;;3.75;;
21162;SDS011;10739;52.198;20.908;2023-05-20T12:01:42;7.97;;;4.50;;
21162;SDS011;10739;52.198;20.908;2023-05-20T12:04:08;6.85;;;4.03;;
21162;SDS011;10739;52.198;20.908;2023-05-20T12:06:37;9.02;;;4.13;;
21162;SDS011;10739;52.198;20.908;2023-05-20T12:09:04;6.68;;;4.45;;
21162;SDS011;10739;52.198;20.908;2023-05-20T12:11:36;9.50;;;4.22;;
21162;SDS011;10739;52.198;20.908;2023-05-20T12:14:05;10.27;;;3.90;;
21162;SDS011;10739;52.198;20.908;2023-05-20T12:16:33;7.72;;;4.05;;
21162;SDS011;10739;52.198;20.908;2023-05-20T12:19:00;8.07;;;4.20;;
21162;SDS011;10739;52.198;20.908;2023-05-20T12:21:27;4.78;;;3.92;;
21162;SDS011;10739;52.198;20.908;2023-05-20T12:23:54;5.88;;;4.10;;
21162;SDS011;10739;52.198;20.908;2023-05-20T12:26:23;6.80;;;4.15;;
21162;SDS011;10739;52.198;20.908;2023-05-20T12:28:52;5.78;;;4.10;;
21162;SDS011;10739;52.198;20.908;2023-05-20T12:31:19;6.25;;;4.38;;
21162;SDS011;10739;52.198;20.908;2023-05-20T12:33:46;7.72;;;4.05;;
21162;SDS011;10739;52.198;20.908;2023-05-20T12:36:12;6.32;;;3.85;;
21162;SDS011;10739;52.198;20.908;2023-05-20T12:38:39;12.02;;;5.30;;
21162;SDS011;10739;52.198;20.908;2023-05-20T12:41:06;12.20;;;4.45;;
21162;SDS011;10739;52.198;20.908;2023-05-20T12:43:34;10.45;;;4.78;;
21162;SDS011;10739;52.198;20.908;2023-05-20T12:46:01;8.25;;;4.60;;
21162;SDS011;10739;52.198;20.908;2023-05-20T12:48:28;12.13;;;4.43;;
21162;SDS011;10739;52.198;20.908;2023-05-20T12:50:54;5.55;;;4.10;;
21162;SDS011;10739;52.198;20.908;2023-05-20T12:53:20;7.57;;;4.90;;
21162;SDS011;10739;52.198;20.908;2023-05-20T12:55:46;7.28;;;4.55;;
21162;SDS011;10739;52.198;20.908;2023-05-20T12:58:13;8.88;;;4.20;;
21162;SDS011;10739;52.198;20.908;2023-05-20T13:00:39;8.27;;;4.18;;
21162;SDS011;10739;52.198;20.908;2023-05-20T13:03:05;6.57;;;3.90;;
21162;SDS011;10739;52.198;20.908;2023-05-20T13:05:32;5.97;;;4.50;;
21162;SDS011;10739;52.198;20.908;2023-05-20T13:07:58;7.75;;;4.63;;
21162;SDS011;10739;52.198;20.908;2023-05-20T13:10:24;10.02;;;4.65;;
21162;SDS011;10739;52.198;20.908;2023-05-20T13:12:51;12.77;;;4.60;;
21162;SDS011;10739;52.198;20.908;2023-05-20T13:15:18;5.38;;;3.95;;
21162;SDS011;10739;52.198;20.908;2023-05-20T13:17:44;10.27;;;4.60;;
21162;SDS011;10739;52.198;20.908;2023-05-20T13:20:10;7.53;;;4.47;;
21162;SDS011;10739;52.198;20.908;2023-05-20T13:22:37;7.15;;;4.03;;
21162;SDS011;10739;52.198;20.908;2023-05-20T13:25:04;6.90;;;4.30;;
21162;SDS011;10739;52.198;20.908;2023-05-20T13:27:31;8.95;;;3.92;;
21162;SDS011;10739;52.198;20.908;2023-05-20T13:29:57;12.27;;;4.32;;
21162;SDS011;10739;52.198;20.908;2023-05-20T13:32:23;5.30;;;4.13;;
21162;SDS011;10739;52.198;20.908;2023-05-20T13:34:50;7.65;;;4.10;;
21162;SDS011;10739;52.198;20.908;2023-05-20T13:37:16;7.35;;;4.25;;
21162;SDS011;10739;52.198;20.908;2023-05-20T13:39:42;9.20;;;4.65;;
21162;SDS011;10739;52.198;20.908;2023-05-20T13:42:09;6.72;;;3.95;;
21162;SDS011;10739;52.198;20.908;2023-05-20T13:44:35;8.45;;;3.88;;
21162;SDS011;10739;52.198;20.908;2023-05-20T13:47:01;7.43;;;3.90;;
21162;SDS011;10739;52.198;20.908;2023-05-20T13:49:28;8.25;;;4.03;;
21162;SDS011;10739;52.198;20.908;2023-05-20T13:51:54;9.40;;;4.20;;
21162;SDS011;10739;52.198;20.908;2023-05-20T13:54:20;10.30;;;5.10;;
21162;SDS011;10739;52.198;20.908;2023-05-20T13:56:46;9.52;;;4.20;;
21162;SDS011;10739;52.198;20.908;2023-05-20T13:59:13;7.43;;;4.25;;
21162;SDS011;10739;52.198;20.908;2023-05-20T14:01:39;9.63;;;4.07;;
21162;SDS011;10739;52.198;20.908;2023-05-20T14:04:10;8.60;;;3.58;;
21162;SDS011;10739;52.198;20.908;2023-05-20T14:06:37;5.88;;;4.25;;
21162;SDS011;10739;52.198;20.908;2023-05-20T14:09:05;12.30;;;4.60;;
21162;SDS011;10739;52.198;20.908;2023-05-20T14:11:33;7.32;;;3.97;;
21162;SDS011;10739;52.198;20.908;2023-05-20T14:13:59;10.98;;;4.18;;
21162;SDS011;10739;52.198;20.908;2023-05-20T14:16:29;6.38;;;4.07;;
21162;SDS011;10739;52.198;20.908;2023-05-20T14:19:01;4.63;;;4.03;;
21162;SDS011;10739;52.198;20.908;2023-05-20T14:21:41;6.45;;;4.10;;
21162;SDS011;10739;52.198;20.908;2023-05-20T14:24:18;6.05;;;4.53;;
21162;SDS011;10739;52.198;20.908;2023-05-20T14:26:44;7.53;;;4.40;;
21162;SDS011;10739;52.198;20.908;2023-05-20T14:29:10;7.72;;;4.18;;
21162;SDS011;10739;52.198;20.908;2023-05-20T14:31:37;7.35;;;3.88;;
21162;SDS011;10739;52.198;20.908;2023-05-20T14:34:03;7.35;;;4.05;;
21162;SDS011;10739;52.198;20.908;2023-05-20T14:36:30;8.77;;;4.38;;
21162;SDS011;10739;52.198;20.908;2023-05-20T14:38:56;8.50;;;4.15;;